sensor_id;sensor_type;location;lat;lon;timestamp;temperature;humidity
41080;DHT22;26826;50.718;7.114;2022-12-11T00:02:32;-0.20;99.90
41080;DHT22;26826;50.718;7.114;2022-12-11T00:12:33;-0.20;99.90
41080;DHT22;26826;50.718;7.114;2022-12-11T00:22:34;-0.20;99.90
41080;DHT22;26826;50.718;7.114;2022-12-11T00:32:34;-0.10;99.90
41080;DHT22;26826;50.718;7.114;2022-12-11T00:42:35;0.00;99.90
41080;DHT22;26826;50.718;7.114;2022-12-11T00:52:35;0.10;99.90
41080;DHT22;26826;50.718;7.114;2022-12-11T01:02:36;0.20;99.90
41080;DHT22;26826;50.718;7.114;2022-12-11T01:12:37;0.20;99.90
41080;DHT22;26826;50.718;7.114;2022-12-11T01:22:38;0.20;99.90
41080;DHT22;26826;50.718;7.114;2022-12-11T01:32:38;0.10;99.90
41080;DHT22;26826;50.718;7.114;2022-12-11T01:42:39;0.20;99.90
41080;DHT22;26826;50.718;7.114;2022-12-11T01:52:41;0.40;99.90
41080;DHT22;26826;50.718;7.114;2022-12-11T02:02:43;0.40;99.90
41080;DHT22;26826;50.718;7.114;2022-12-11T02:12:57;0.40;99.90
41080;DHT22;26826;50.718;7.114;2022-12-11T02:23:18;0.30;99.90
41080;DHT22;26826;50.718;7.114;2022-12-11T02:33:32;0.40;99.90
41080;DHT22;26826;50.718;7.114;2022-12-11T02:43:35;0.60;99.90
41080;DHT22;26826;50.718;7.114;2022-12-11T02:53:37;0.40;99.90
41080;DHT22;26826;50.718;7.114;2022-12-11T03:03:39;0.50;99.90
41080;DHT22;26826;50.718;7.114;2022-12-11T03:13:40;0.40;99.90
41080;DHT22;26826;50.718;7.114;2022-12-11T03:23:55;0.50;99.90
41080;DHT22;26826;50.718;7.114;2022-12-11T03:34:02;0.30;99.90
41080;DHT22;26826;50.718;7.114;2022-12-11T03:44:03;0.40;99.90
41080;DHT22;26826;50.718;7.114;2022-12-11T03:54:04;0.50;99.90
41080;DHT22;26826;50.718;7.114;2022-12-11T04:04:05;0.50;99.90
41080;DHT22;26826;50.718;7.114;2022-12-11T04:14:10;0.40;99.90
41080;DHT22;26826;50.718;7.114;2022-12-11T04:24:30;0.30;99.90
41080;DHT22;26826;50.718;7.114;2022-12-11T04:34:31;0.50;99.90
41080;DHT22;26826;50.718;7.114;2022-12-11T04:44:34;0.60;99.90
41080;DHT22;26826;50.718;7.114;2022-12-11T04:54:35;0.60;99.90
41080;DHT22;26826;50.718;7.114;2022-12-11T05:04:36;0.50;99.90
41080;DHT22;26826;50.718;7.114;2022-12-11T05:14:36;0.60;99.90
41080;DHT22;26826;50.718;7.114;2022-12-11T05:24:37;0.40;99.90
41080;DHT22;26826;50.718;7.114;2022-12-11T05:34:38;0.30;99.90
41080;DHT22;26826;50.718;7.114;2022-12-11T05:44:38;0.50;99.90
41080;DHT22;26826;50.718;7.114;2022-12-11T05:54:39;0.40;99.90
41080;DHT22;26826;50.718;7.114;2022-12-11T06:04:39;0.40;99.90
41080;DHT22;26826;50.718;7.114;2022-12-11T06:14:40;0.40;99.90
41080;DHT22;26826;50.718;7.114;2022-12-11T06:24:41;0.40;99.90
41080;DHT22;26826;50.718;7.114;2022-12-11T06:34:41;0.40;99.90
41080;DHT22;26826;50.718;7.114;2022-12-11T06:55:23;0.60;99.90
41080;DHT22;26826;50.718;7.114;2022-12-11T07:05:24;0.50;99.90
41080;DHT22;26826;50.718;7.114;2022-12-11T07:15:24;0.50;99.90
41080;DHT22;26826;50.718;7.114;2022-12-11T07:25:25;0.40;99.90
41080;DHT22;26826;50.718;7.114;2022-12-11T07:35:25;0.40;99.90
41080;DHT22;26826;50.718;7.114;2022-12-11T07:45:26;0.40;99.90
41080;DHT22;26826;50.718;7.114;2022-12-11T07:55:26;0.40;99.90
41080;DHT22;26826;50.718;7.114;2022-12-11T08:05:27;0.40;99.90
41080;DHT22;26826;50.718;7.114;2022-12-11T08:15:28;0.40;99.90
41080;DHT22;26826;50.718;7.114;2022-12-11T08:25:28;0.40;99.90
41080;DHT22;26826;50.718;7.114;2022-12-11T08:35:29;0.40;99.90
41080;DHT22;26826;50.718;7.114;2022-12-11T08:45:29;0.60;99.90
41080;DHT22;26826;50.718;7.114;2022-12-11T08:55:32;0.60;99.90
41080;DHT22;26826;50.718;7.114;2022-12-11T09:05:32;0.60;99.90
41080;DHT22;26826;50.718;7.114;2022-12-11T09:15:33;0.70;99.90
41080;DHT22;26826;50.718;7.114;2022-12-11T09:25:33;0.80;99.90
41080;DHT22;26826;50.718;7.114;2022-12-11T09:35:34;0.80;99.90
41080;DHT22;26826;50.718;7.114;2022-12-11T09:45:35;0.80;99.90
41080;DHT22;26826;50.718;7.114;2022-12-11T10:06:24;0.80;99.90
41080;DHT22;26826;50.718;7.114;2022-12-11T10:26:30;1.00;99.90
41080;DHT22;26826;50.718;7.114;2022-12-11T10:36:34;1.20;99.90
41080;DHT22;26826;50.718;7.114;2022-12-11T10:46:35;1.30;99.90
41080;DHT22;26826;50.718;7.114;2022-12-11T10:56:36;1.20;99.90
41080;DHT22;26826;50.718;7.114;2022-12-11T11:06:37;1.50;99.90
41080;DHT22;26826;50.718;7.114;2022-12-11T11:16:39;1.60;99.90
41080;DHT22;26826;50.718;7.114;2022-12-11T11:26:40;1.40;99.90
41080;DHT22;26826;50.718;7.114;2022-12-11T11:36:41;1.50;99.90
41080;DHT22;26826;50.718;7.114;2022-12-11T11:46:45;1.90;99.90
41080;DHT22;26826;50.718;7.114;2022-12-11T11:56:50;1.80;99.90
41080;DHT22;26826;50.718;7.114;2022-12-11T12:28:13;2.80;99.90
41080;DHT22;26826;50.718;7.114;2022-12-11T12:38:26;2.90;99.90
41080;DHT22;26826;50.718;7.114;2022-12-11T12:48:32;2.60;99.90
41080;DHT22;26826;50.718;7.114;2022-12-11T13:08:46;2.60;99.90
41080;DHT22;26826;50.718;7.114;2022-12-11T13:18:47;2.70;99.90
41080;DHT22;26826;50.718;7.114;2022-12-11T13:28:48;2.60;99.90
41080;DHT22;26826;50.718;7.114;2022-12-11T13:39:21;2.70;99.90
41080;DHT22;26826;50.718;7.114;2022-12-11T13:49:27;2.60;99.90
41080;DHT22;26826;50.718;7.114;2022-12-11T13:59:37;2.50;99.90
41080;DHT22;26826;50.718;7.114;2022-12-11T14:09:44;2.60;99.90
41080;DHT22;26826;50.718;7.114;2022-12-11T14:19:48;2.30;99.90
41080;DHT22;26826;50.718;7.114;2022-12-11T14:29:49;2.10;99.90
41080;DHT22;26826;50.718;7.114;2022-12-11T14:39:56;2.10;99.90
41080;DHT22;26826;50.718;7.114;2022-12-11T15:00:23;1.80;99.90
41080;DHT22;26826;50.718;7.114;2022-12-11T15:10:36;1.80;99.90
41080;DHT22;26826;50.718;7.114;2022-12-11T15:20:40;1.70;99.90
41080;DHT22;26826;50.718;7.114;2022-12-11T15:30:40;1.70;99.90
41080;DHT22;26826;50.718;7.114;2022-12-11T15:40:41;1.80;99.90
41080;DHT22;26826;50.718;7.114;2022-12-11T15:50:42;1.60;99.90
41080;DHT22;26826;50.718;7.114;2022-12-11T16:00:42;1.60;99.90
41080;DHT22;26826;50.718;7.114;2022-12-11T16:10:44;1.60;99.90
41080;DHT22;26826;50.718;7.114;2022-12-11T16:20:45;1.50;99.90
41080;DHT22;26826;50.718;7.114;2022-12-11T16:30:46;1.50;99.90
41080;DHT22;26826;50.718;7.114;2022-12-11T16:40:47;1.40;99.90
41080;DHT22;26826;50.718;7.114;2022-12-11T16:50:47;1.30;99.90
41080;DHT22;26826;50.718;7.114;2022-12-11T17:00:49;1.30;99.90
41080;DHT22;26826;50.718;7.114;2022-12-11T17:10:50;1.30;99.90
41080;DHT22;26826;50.718;7.114;2022-12-11T17:20:51;1.30;99.90
41080;DHT22;26826;50.718;7.114;2022-12-11T17:30:51;1.30;99.90
41080;DHT22;26826;50.718;7.114;2022-12-11T17:40:52;1.40;99.90
41080;DHT22;26826;50.718;7.114;2022-12-11T17:50:53;1.30;99.90
41080;DHT22;26826;50.718;7.114;2022-12-11T18:00:55;1.50;99.90
41080;DHT22;26826;50.718;7.114;2022-12-11T18:11:02;1.40;99.90
41080;DHT22;26826;50.718;7.114;2022-12-11T18:21:03;1.30;99.90
41080;DHT22;26826;50.718;7.114;2022-12-11T18:31:04;1.30;99.90
41080;DHT22;26826;50.718;7.114;2022-12-11T18:41:06;1.20;99.90
41080;DHT22;26826;50.718;7.114;2022-12-11T18:51:11;1.10;99.90
41080;DHT22;26826;50.718;7.114;2022-12-11T19:01:17;1.10;99.90
41080;DHT22;26826;50.718;7.114;2022-12-11T19:11:20;1.00;99.90
41080;DHT22;26826;50.718;7.114;2022-12-11T19:21:21;0.90;99.90
41080;DHT22;26826;50.718;7.114;2022-12-11T19:31:22;0.80;99.90
41080;DHT22;26826;50.718;7.114;2022-12-11T19:41:24;0.80;99.90
41080;DHT22;26826;50.718;7.114;2022-12-11T19:51:33;0.70;99.90
41080;DHT22;26826;50.718;7.114;2022-12-11T20:01:36;0.70;99.90
41080;DHT22;26826;50.718;7.114;2022-12-11T20:11:39;0.70;99.90
41080;DHT22;26826;50.718;7.114;2022-12-11T20:21:40;0.70;99.90
41080;DHT22;26826;50.718;7.114;2022-12-11T20:31:41;0.50;99.90
41080;DHT22;26826;50.718;7.114;2022-12-11T20:41:42;0.50;99.90
41080;DHT22;26826;50.718;7.114;2022-12-11T20:51:43;0.50;99.90
41080;DHT22;26826;50.718;7.114;2022-12-11T21:01:43;0.40;99.90
41080;DHT22;26826;50.718;7.114;2022-12-11T21:11:44;0.50;99.90
41080;DHT22;26826;50.718;7.114;2022-12-11T21:21:44;0.40;99.90
41080;DHT22;26826;50.718;7.114;2022-12-11T21:31:45;0.40;99.90
41080;DHT22;26826;50.718;7.114;2022-12-11T21:41:46;0.30;99.90
41080;DHT22;26826;50.718;7.114;2022-12-11T21:51:46;0.40;99.90
41080;DHT22;26826;50.718;7.114;2022-12-11T22:01:47;0.30;99.90
41080;DHT22;26826;50.718;7.114;2022-12-11T22:11:47;0.40;99.90
41080;DHT22;26826;50.718;7.114;2022-12-11T22:21:48;0.40;99.90
41080;DHT22;26826;50.718;7.114;2022-12-11T22:31:49;0.50;99.90
41080;DHT22;26826;50.718;7.114;2022-12-11T22:41:49;0.60;99.90
41080;DHT22;26826;50.718;7.114;2022-12-11T22:51:50;0.70;99.90
41080;DHT22;26826;50.718;7.114;2022-12-11T23:01:50;0.60;99.90
41080;DHT22;26826;50.718;7.114;2022-12-11T23:11:51;0.50;99.90
41080;DHT22;26826;50.718;7.114;2022-12-11T23:21:52;0.60;99.90
41080;DHT22;26826;50.718;7.114;2022-12-11T23:31:52;0.70;99.90
41080;DHT22;26826;50.718;7.114;2022-12-11T23:41:53;0.60;99.90
41080;DHT22;26826;50.718;7.114;2022-12-11T23:51:53;0.30;99.90
